createdAt,value
2019-02-18T03:34:27.531Z,2.68
2019-02-18T03:36:56.793Z,2.51
2019-02-18T03:39:26.118Z,2.52
2019-02-18T03:41:55.492Z,2.44
2019-02-18T03:44:24.749Z,2.51
2019-02-18T03:46:54.078Z,2.51
2019-02-18T03:49:23.500Z,2.50
2019-02-18T03:51:52.827Z,2.55
2019-02-18T03:54:22.202Z,2.55
2019-02-18T03:56:51.729Z,2.53
2019-02-18T03:59:21.064Z,2.55
2019-02-18T04:01:50.448Z,2.55
2019-02-18T04:04:19.726Z,2.51
2019-02-18T04:06:49.009Z,2.57
2019-02-18T04:09:18.349Z,2.62
2019-02-18T04:11:47.920Z,2.65
2019-02-18T04:14:17.231Z,2.66
2019-02-18T04:16:46.595Z,2.66
2019-02-18T04:19:15.897Z,2.64
2019-02-18T04:21:45.204Z,2.59
2019-02-18T04:24:14.576Z,2.60
2019-02-18T04:26:44.044Z,2.58
2019-02-18T04:29:13.331Z,2.69
2019-02-18T04:31:42.674Z,2.70
2019-02-18T04:34:12.059Z,2.74
2019-02-18T04:36:41.336Z,2.72
2019-02-18T04:39:10.687Z,2.70
2019-02-18T04:41:40.137Z,2.64
2019-02-18T04:44:09.455Z,2.61
2019-02-18T04:46:38.737Z,2.62
2019-02-18T04:49:08.212Z,2.62
2019-02-18T04:51:37.510Z,2.61
2019-02-18T04:54:06.852Z,2.64
2019-02-18T04:56:36.421Z,2.60
2019-02-18T04:59:05.697Z,2.64
2019-02-18T05:01:35.090Z,2.62
2019-02-18T05:04:04.609Z,2.60
2019-02-18T05:06:34.001Z,2.53
2019-02-18T05:09:05.651Z,2.54
2019-02-18T05:11:35.440Z,2.48
2019-02-18T05:14:04.692Z,2.54
2019-02-18T05:16:34.013Z,2.51
2019-02-18T05:19:03.458Z,2.46
2019-02-18T05:21:32.771Z,2.41
2019-02-18T05:24:02.078Z,2.42
2019-02-18T05:26:31.447Z,2.38
2019-02-18T05:29:00.853Z,2.43
2019-02-18T05:31:30.164Z,2.43
2019-02-18T05:33:59.484Z,2.41
2019-02-18T05:36:28.804Z,2.43
2019-02-18T05:38:58.136Z,2.44
2019-02-18T05:41:27.636Z,2.39
2019-02-18T05:43:56.973Z,2.33
2019-02-18T05:46:26.407Z,2.38
2019-02-18T05:48:55.853Z,2.37
2019-02-18T05:51:25.164Z,2.38
2019-02-18T05:53:54.460Z,2.34
2019-02-18T05:56:24.064Z,2.35
2019-02-18T05:58:53.371Z,2.34
2019-02-18T06:01:22.702Z,2.35
2019-02-18T06:03:52.275Z,2.35
2019-02-18T06:06:21.556Z,2.35
2019-02-18T06:08:50.913Z,2.35
2019-02-18T06:11:20.343Z,2.44
2019-02-18T06:13:49.653Z,2.41
2019-02-18T06:16:18.981Z,2.43
2019-02-18T06:18:48.484Z,2.41
2019-02-18T06:21:17.817Z,2.47
2019-02-18T06:23:47.178Z,2.41
2019-02-18T06:26:16.604Z,2.53
2019-02-18T06:28:45.998Z,2.53
2019-02-18T06:31:15.318Z,2.54
2019-02-18T06:33:44.755Z,2.58
2019-02-18T06:36:14.202Z,2.74
2019-02-18T06:38:43.481Z,2.81
2019-02-18T06:41:13.000Z,2.82
2019-02-18T06:43:42.340Z,2.91
2019-02-18T06:46:22.367Z,2.94
2019-02-18T06:48:55.457Z,2.90
2019-02-18T06:51:24.999Z,2.92
2019-02-18T06:53:54.354Z,2.97
2019-02-18T06:56:40.567Z,2.96
2019-02-18T06:59:17.655Z,3.05
2019-02-18T07:02:11.678Z,3.08
2019-02-18T07:05:06.050Z,3.12
2019-02-18T07:07:44.621Z,3.19
2019-02-18T07:10:39.179Z,3.26
2019-02-18T07:13:08.645Z,3.18
2019-02-18T07:15:37.939Z,3.17
2019-02-18T07:18:07.294Z,3.25
2019-02-18T07:20:36.771Z,3.26
2019-02-18T07:23:06.072Z,3.28
2019-02-18T07:25:35.446Z,3.32
2019-02-18T07:28:05.176Z,3.34
2019-02-18T07:30:34.483Z,3.46
2019-02-18T07:33:03.830Z,3.52
2019-02-18T07:35:33.097Z,3.62
2019-02-18T07:38:02.403Z,3.68
2019-02-18T07:40:31.798Z,3.71
2019-02-18T07:43:01.328Z,3.77
2019-02-18T07:45:30.604Z,3.89
2019-02-18T07:47:59.861Z,3.91
2019-02-18T07:50:29.547Z,4.00
2019-02-18T07:52:58.849Z,4.13
2019-02-18T07:55:28.110Z,4.19
2019-02-18T07:57:57.640Z,4.25
2019-02-18T08:00:26.991Z,4.27
2019-02-18T08:02:56.395Z,4.30
2019-02-18T08:05:25.849Z,4.34
2019-02-18T08:07:55.114Z,4.41
2019-02-18T08:10:24.501Z,4.39
2019-02-18T08:12:53.824Z,4.49
2019-02-18T08:15:23.137Z,4.60
2019-02-18T08:17:52.493Z,4.75
2019-02-18T08:20:21.863Z,4.71
2019-02-18T08:22:51.154Z,4.85
2019-02-18T08:25:20.501Z,4.96
2019-02-18T08:27:49.788Z,5.09
2019-02-18T08:30:19.138Z,5.20
2019-02-18T08:32:48.488Z,5.26
2019-02-18T08:35:17.836Z,5.11
2019-02-18T08:37:47.166Z,5.10
2019-02-18T08:40:22.505Z,5.12
2019-02-18T08:42:47.641Z,5.10
2019-02-18T08:45:16.914Z,5.11
2019-02-18T08:47:46.204Z,5.07
2019-02-18T08:50:15.755Z,4.86
2019-02-18T08:52:45.106Z,4.95
2019-02-18T08:55:14.669Z,4.74
2019-02-18T08:57:44.144Z,4.60
2019-02-18T09:00:15.638Z,4.62
2019-02-18T09:02:45.207Z,4.65
2019-02-18T09:05:15.816Z,4.85
2019-02-18T09:07:45.167Z,4.66
2019-02-18T09:10:14.578Z,4.67
2019-02-18T09:12:43.888Z,4.92
2019-02-18T09:15:14.259Z,4.92
2019-02-18T09:17:44.046Z,5.03
2019-02-18T09:20:13.352Z,5.27
2019-02-18T09:22:52.046Z,5.36
2019-02-18T09:25:33.022Z,5.35
2019-02-18T09:28:02.555Z,5.41
2019-02-18T09:30:34.290Z,5.43
2019-02-18T09:33:03.826Z,5.53
2019-02-18T09:35:33.226Z,5.56
2019-02-18T09:38:02.529Z,5.66
2019-02-18T09:40:32.322Z,5.65
2019-02-18T09:43:01.575Z,5.94
2019-02-18T09:45:30.840Z,6.05
2019-02-18T09:48:00.368Z,6.27
2019-02-18T09:50:29.734Z,6.55
2019-02-18T09:52:59.104Z,6.58
2019-02-18T09:55:28.711Z,6.46
2019-02-18T09:57:57.993Z,6.39
2019-02-18T10:00:27.254Z,6.16
2019-02-18T10:02:56.715Z,6.42
2019-02-18T10:05:26.146Z,6.40
2019-02-18T10:07:55.637Z,6.60
2019-02-18T10:10:24.956Z,6.85
2019-02-18T10:12:54.289Z,6.78
2019-02-18T10:15:23.601Z,6.77
2019-02-18T10:17:52.916Z,7.37
2019-02-18T10:20:22.244Z,7.93
2019-02-18T10:22:51.533Z,8.43
2019-02-18T10:25:21.403Z,8.35
2019-02-18T10:27:50.720Z,8.45
2019-02-18T10:30:20.826Z,8.55
2019-02-18T10:32:50.286Z,8.92
2019-02-18T10:35:19.604Z,9.97
2019-02-18T10:37:55.020Z,10.56
2019-02-18T10:40:20.163Z,10.25
2019-02-18T10:42:49.468Z,9.68
2019-02-18T10:45:18.825Z,9.29
2019-02-18T10:47:48.204Z,8.96
2019-02-18T10:50:17.642Z,8.87
2019-02-18T10:52:46.895Z,8.65
2019-02-18T10:55:16.560Z,9.85
2019-02-18T10:57:45.936Z,10.84
2019-02-18T11:00:15.607Z,11.77
2019-02-18T11:02:45.845Z,12.54
2019-02-18T11:05:15.296Z,12.75
2019-02-18T11:07:44.604Z,14.07
2019-02-18T11:10:14.512Z,14.73
2019-02-18T11:12:43.768Z,15.17
2019-02-18T11:15:13.366Z,15.46
2019-02-18T11:17:43.090Z,15.56
2019-02-18T11:20:12.485Z,15.02
2019-02-18T11:22:41.813Z,15.99
2019-02-18T11:25:11.642Z,15.86
2019-02-18T11:27:41.028Z,16.07
2019-02-18T11:30:12.839Z,14.99
2019-02-18T11:32:42.148Z,14.71
2019-02-18T11:35:11.749Z,14.94
2019-02-18T11:37:41.169Z,14.74
2019-02-18T11:40:12.673Z,14.72
2019-02-18T11:42:42.127Z,15.68
2019-02-18T11:45:12.759Z,15.34
2019-02-18T11:47:42.012Z,15.45
2019-02-18T11:50:12.312Z,14.43
2019-02-18T11:52:41.708Z,12.83
2019-02-18T11:55:11.366Z,11.75
2019-02-18T11:57:40.848Z,10.19
2019-02-18T12:00:11.240Z,9.29
2019-02-18T12:02:40.593Z,8.51
2019-02-18T12:05:10.455Z,7.94
2019-02-18T12:07:39.836Z,7.78
2019-02-18T12:10:09.867Z,7.62
2019-02-18T12:12:39.546Z,7.60
2019-02-18T12:15:10.060Z,7.48
2019-02-18T12:17:39.337Z,7.38
2019-02-18T12:20:10.931Z,7.50
2019-02-18T12:22:40.319Z,7.39
2019-02-18T12:25:09.816Z,7.43
2019-02-18T12:27:39.805Z,7.13
2019-02-18T12:30:10.085Z,7.20
2019-02-18T12:32:39.482Z,7.28
2019-02-18T12:35:09.297Z,7.30
2019-02-18T12:37:38.578Z,7.19
2019-02-18T12:40:08.563Z,7.06
2019-02-18T12:42:38.162Z,6.82
2019-02-18T12:45:08.413Z,6.84
2019-02-18T12:47:37.865Z,6.71
2019-02-18T12:50:07.736Z,6.73
2019-02-18T12:52:37.093Z,6.75
2019-02-18T12:55:06.535Z,6.71
2019-02-18T12:57:36.214Z,6.53
2019-02-18T13:00:06.418Z,6.41
2019-02-18T13:02:43.688Z,6.46
2019-02-18T13:05:07.409Z,6.49
2019-02-18T13:07:36.787Z,6.42
2019-02-18T13:10:06.167Z,6.39
2019-02-18T13:12:35.425Z,6.45
2019-02-18T13:15:05.710Z,6.40
2019-02-18T13:17:35.064Z,6.35
2019-02-18T13:20:04.513Z,6.46
2019-02-18T13:22:33.901Z,6.43
2019-02-18T13:25:03.331Z,6.42
2019-02-18T13:27:32.768Z,6.47
2019-02-18T13:30:02.023Z,6.43
2019-02-18T13:32:31.380Z,6.48
2019-02-18T13:35:00.794Z,6.57
2019-02-18T13:37:30.226Z,6.55
2019-02-18T13:39:59.529Z,6.55
2019-02-18T13:42:29.074Z,6.55
2019-02-18T13:44:58.402Z,6.56
2019-02-18T13:47:27.670Z,6.51
2019-02-18T13:49:57.240Z,6.53
2019-02-18T13:52:26.531Z,6.53
2019-02-18T13:54:55.821Z,6.50
2019-02-18T13:57:25.357Z,6.46
2019-02-18T13:59:54.695Z,6.44
2019-02-18T14:02:24.042Z,6.45
2019-02-18T14:04:53.567Z,6.36
2019-02-18T14:07:22.849Z,6.33
2019-02-18T14:09:52.115Z,6.29
2019-02-18T14:12:21.407Z,6.25
2019-02-18T14:14:50.740Z,6.28
2019-02-18T14:17:20.043Z,6.27
2019-02-18T14:19:49.571Z,6.32
2019-02-18T14:22:19.003Z,6.31
2019-02-18T14:24:48.483Z,6.32
2019-02-18T14:27:17.798Z,6.31
2019-02-18T14:29:47.416Z,6.34
2019-02-18T14:32:16.765Z,6.43
2019-02-18T14:34:46.159Z,6.40
2019-02-18T14:37:15.426Z,6.32
2019-02-18T14:39:44.717Z,6.30
2019-02-18T14:42:14.188Z,6.29
2019-02-18T14:44:43.836Z,6.23
2019-02-18T14:47:13.260Z,6.11
2019-02-18T14:49:43.036Z,6.05
2019-02-18T14:52:12.865Z,5.97
2019-02-18T14:54:42.236Z,5.91
2019-02-18T14:57:11.710Z,5.85
2019-02-18T14:59:41.257Z,5.80
2019-02-18T15:02:10.865Z,5.75
2019-02-18T15:04:40.293Z,5.72
2019-02-18T15:07:09.645Z,5.67
2019-02-18T15:09:38.959Z,5.61
2019-02-18T15:12:08.760Z,5.60
2019-02-18T15:14:38.368Z,5.54
2019-02-18T15:17:07.645Z,5.48
2019-02-18T15:19:37.106Z,5.43
2019-02-18T15:22:06.384Z,5.41
2019-02-18T15:24:35.660Z,5.34
2019-02-18T15:27:05.159Z,5.28
2019-02-18T15:29:35.154Z,5.18
2019-02-18T15:32:04.712Z,5.09
2019-02-18T15:34:34.333Z,5.02
2019-02-18T15:37:03.667Z,4.92
2019-02-18T15:39:32.906Z,4.79
2019-02-18T15:42:02.347Z,4.67
2019-02-18T15:44:31.755Z,4.60
2019-02-18T15:47:01.199Z,4.57
2019-02-18T15:49:30.596Z,4.54
2019-02-18T15:51:59.920Z,4.48
2019-02-18T15:54:29.231Z,4.35
2019-02-18T15:56:58.754Z,4.28
2019-02-18T15:59:28.110Z,4.19
2019-02-18T16:01:57.427Z,4.13
2019-02-18T16:04:26.853Z,4.02
2019-02-18T16:06:56.204Z,3.92
2019-02-18T16:09:25.476Z,3.83
2019-02-18T16:11:54.889Z,3.73
2019-02-18T16:14:24.223Z,3.63
2019-02-18T16:16:53.570Z,3.51
2019-02-18T16:19:23.045Z,3.40
2019-02-18T16:21:52.395Z,3.30
2019-02-18T16:24:21.780Z,3.18
2019-02-18T16:26:51.315Z,3.09
2019-02-18T16:29:20.822Z,2.98
2019-02-18T16:31:50.128Z,2.88
2019-02-18T16:34:19.658Z,2.77
2019-02-18T16:36:48.995Z,2.66
2019-02-18T16:39:18.374Z,2.59
2019-02-18T16:41:47.925Z,2.48
2019-02-18T16:44:17.258Z,2.40
2019-02-18T16:46:46.517Z,2.34
2019-02-18T16:49:16.292Z,2.28
2019-02-18T16:51:45.724Z,2.21
2019-02-18T16:54:15.069Z,2.12
2019-02-18T16:56:44.629Z,2.08
2019-02-18T16:59:13.990Z,2.05
2019-02-18T17:01:43.305Z,1.97
2019-02-18T17:04:12.651Z,1.85
2019-02-18T17:06:42.072Z,1.75
2019-02-18T17:09:14.846Z,1.69
2019-02-18T17:11:44.213Z,1.64
2019-02-18T17:14:13.549Z,1.57
2019-02-18T17:16:42.946Z,1.49
2019-02-18T17:19:12.258Z,1.37
2019-02-18T17:21:41.597Z,1.36
2019-02-18T17:24:11.141Z,1.30
2019-02-18T17:26:40.596Z,1.21
2019-02-18T17:29:09.911Z,1.15
2019-02-18T17:31:39.352Z,1.08
2019-02-18T17:34:08.672Z,1.00
2019-02-18T17:36:38.002Z,0.98
2019-02-18T17:39:08.122Z,0.97
2019-02-18T17:41:37.648Z,0.89
2019-02-18T17:44:06.946Z,0.93
2019-02-18T17:46:36.417Z,0.87
2019-02-18T17:49:05.774Z,0.78
2019-02-18T17:51:35.110Z,0.78
2019-02-18T17:54:04.740Z,0.77
2019-02-18T17:56:34.329Z,0.68
2019-02-18T17:59:03.575Z,0.59
2019-02-18T18:01:32.929Z,0.51
2019-02-18T18:04:02.277Z,0.46
2019-02-18T18:06:31.649Z,0.47
2019-02-18T18:09:01.027Z,0.41
2019-02-18T18:11:30.691Z,0.35
2019-02-18T18:13:59.978Z,0.33
2019-02-18T18:16:29.287Z,0.36
2019-02-18T18:18:58.581Z,0.30
2019-02-18T18:21:27.936Z,0.21
2019-02-18T18:23:57.462Z,0.15
2019-02-18T18:26:26.786Z,0.04
2019-02-18T18:28:56.175Z,-0.03
2019-02-18T18:31:25.637Z,-0.09
2019-02-18T18:33:54.903Z,-0.12
2019-02-18T18:36:24.326Z,-0.14
2019-02-18T18:38:53.748Z,-0.13
2019-02-18T18:41:23.124Z,-0.14
2019-02-18T18:43:52.433Z,-0.16
2019-02-18T18:46:21.687Z,-0.19
2019-02-18T18:48:50.985Z,-0.17
2019-02-18T18:51:20.259Z,-0.18
2019-02-18T18:53:49.590Z,-0.20
2019-02-18T18:56:19.011Z,-0.29
2019-02-18T18:58:48.310Z,-0.28
2019-02-18T19:01:17.702Z,-0.24
2019-02-18T19:03:47.154Z,-0.21
2019-02-18T19:06:16.580Z,-0.19
2019-02-18T19:08:46.207Z,-0.20
2019-02-18T19:11:15.536Z,-0.25
2019-02-18T19:13:44.818Z,-0.23
2019-02-18T19:16:14.141Z,-0.19
2019-02-18T19:18:43.473Z,-0.08
2019-02-18T19:21:12.833Z,-0.04
2019-02-18T19:23:42.455Z,0.09
2019-02-18T19:26:11.671Z,0.28
2019-02-18T19:28:40.969Z,0.45
2019-02-18T19:31:10.257Z,0.56
2019-02-18T19:33:39.574Z,0.61
2019-02-18T19:36:08.931Z,0.59
2019-02-18T19:38:38.271Z,0.59
2019-02-18T19:41:07.622Z,0.61
2019-02-18T19:43:37.027Z,0.85
2019-02-18T19:46:06.525Z,1.09
2019-02-18T19:48:35.826Z,1.24
2019-02-18T19:51:05.397Z,1.42
2019-02-18T19:53:34.841Z,1.42
2019-02-18T19:56:04.145Z,1.44
2019-02-18T19:58:33.580Z,1.41
2019-02-18T20:01:03.030Z,1.34
2019-02-18T20:03:32.364Z,1.30
2019-02-18T20:06:01.889Z,1.32
2019-02-18T20:08:31.402Z,1.34
2019-02-18T20:11:00.774Z,1.32
2019-02-18T20:13:30.067Z,1.26
2019-02-18T20:15:59.528Z,1.19
2019-02-18T20:18:28.822Z,1.17
2019-02-18T20:20:58.240Z,1.23
2019-02-18T20:23:27.709Z,1.15
2019-02-18T20:25:57.050Z,1.00
2019-02-18T20:28:26.432Z,0.89
2019-02-18T20:30:55.922Z,0.78
2019-02-18T20:33:25.288Z,0.66
2019-02-18T20:35:54.592Z,0.56
2019-02-18T20:38:24.027Z,0.51
2019-02-18T20:40:53.285Z,0.43
2019-02-18T20:43:22.679Z,0.43
2019-02-18T20:45:52.126Z,0.39
2019-02-18T20:48:21.469Z,0.31
2019-02-18T20:50:50.780Z,0.24
2019-02-18T20:53:20.368Z,0.18
2019-02-18T20:55:49.689Z,0.14
2019-02-18T20:58:19.000Z,0.13
2019-02-18T21:00:48.530Z,0.14
2019-02-18T21:03:18.097Z,0.13
2019-02-18T21:05:47.450Z,0.11
2019-02-18T21:08:16.932Z,0.06
2019-02-18T21:10:46.276Z,0.09
2019-02-18T21:13:15.594Z,0.17
2019-02-18T21:15:45.206Z,0.25
2019-02-18T21:18:14.781Z,0.32
2019-02-18T21:20:44.225Z,0.33
2019-02-18T21:23:13.807Z,0.32
2019-02-18T21:25:43.892Z,0.32
2019-02-18T21:28:13.207Z,0.26
2019-02-18T21:30:42.644Z,0.17
2019-02-18T21:33:12.107Z,0.05
2019-02-18T21:35:41.450Z,-0.04
2019-02-18T21:38:10.958Z,-0.09
2019-02-18T21:40:40.308Z,-0.10
2019-02-18T21:43:09.583Z,-0.04
2019-02-18T21:45:39.181Z,-0.01
2019-02-18T21:48:09.045Z,-0.03
2019-02-18T21:50:38.346Z,0.00
2019-02-18T21:53:07.878Z,0.03
2019-02-18T21:55:37.260Z,0.05
2019-02-18T21:58:06.669Z,0.08
2019-02-18T22:00:36.256Z,0.06
2019-02-18T22:03:05.595Z,0.02
2019-02-18T22:05:34.951Z,-0.09
2019-02-18T22:08:04.303Z,-0.22
2019-02-18T22:10:33.595Z,-0.28
2019-02-18T22:13:02.893Z,-0.23
2019-02-18T22:15:32.468Z,-0.14
2019-02-18T22:18:01.892Z,-0.07
2019-02-18T22:20:31.274Z,-0.12
2019-02-18T22:23:00.722Z,-0.15
2019-02-18T22:25:30.053Z,-0.11
2019-02-18T22:27:59.378Z,-0.13
2019-02-18T22:30:28.910Z,-0.18
2019-02-18T22:32:58.434Z,-0.29
2019-02-18T22:35:27.718Z,-0.43
2019-02-18T22:37:57.190Z,-0.51
2019-02-18T22:40:26.498Z,-0.56
2019-02-18T22:42:55.772Z,-0.63
2019-02-18T22:45:25.289Z,-0.70
2019-02-18T22:47:54.660Z,-0.75
2019-02-18T22:50:23.975Z,-0.80
2019-02-18T22:52:53.547Z,-0.70
2019-02-18T22:55:22.866Z,-0.55
2019-02-18T22:57:52.118Z,-0.35
2019-02-18T23:00:59.389Z,-0.23
2019-02-18T23:03:28.848Z,-0.15
2019-02-18T23:05:58.229Z,-0.27
2019-02-18T23:08:27.751Z,-0.52
2019-02-18T23:10:57.105Z,-0.65
2019-02-18T23:13:26.440Z,-0.75
2019-02-18T23:15:56.536Z,-0.82
2019-02-18T23:18:25.900Z,-0.83
2019-02-18T23:20:55.215Z,-0.88
2019-02-18T23:23:24.731Z,-0.93
2019-02-18T23:25:54.072Z,-0.98
2019-02-18T23:28:23.447Z,-0.99
2019-02-18T23:30:53.084Z,-1.02
2019-02-18T23:33:22.435Z,-1.00
2019-02-18T23:35:51.705Z,-0.99
2019-02-18T23:38:21.155Z,-0.98
2019-02-18T23:40:50.505Z,-1.00
2019-02-18T23:43:19.828Z,-1.00
2019-02-18T23:45:49.588Z,-0.78
2019-02-18T23:48:18.958Z,-0.69
2019-02-18T23:50:48.280Z,-0.65
2019-02-18T23:53:17.915Z,-0.60
2019-02-18T23:55:47.298Z,-0.60
2019-02-18T23:58:16.686Z,-0.69
